Time;durP1;ratioP1;P1;durP2;ratioP2;P2;SDS_P1;SDS_P2;PMS_P1;PMS_P2;Temp;Humidity;BMP_temperature;BMP_pressure;BME280_temperature;BME280_humidity;BME280_pressure;Samples;Min_cycle;Max_cycle;Signal;HPM_P1;HPM_P2
2023/07/16 00:01:16;;;;;;;7.72;4.22;;;;;;;27.81;100.00;97556.88;4830853;29;20049;-65
2023/07/16 00:03:45;;;;;;;5.43;4.43;;;;;;;27.86;100.00;97559.41;4803155;29;20057;-65
2023/07/16 00:06:14;;;;;;;4.45;3.75;;;;;;;27.86;100.00;97559.41;4825291;29;20205;-65
2023/07/16 00:08:44;;;;;;;5.55;4.10;;;;;;;27.78;100.00;97552.91;4820901;29;20564;-66
2023/07/16 00:11:13;;;;;;;7.05;3.95;;;;;;;27.80;100.00;97553.38;4806643;29;20054;-65
2023/07/16 00:13:46;;;;;;;4.63;3.58;;;;;;;27.82;100.00;97542.16;4819264;29;20058;-65
2023/07/16 00:16:16;;;;;;;5.65;3.90;;;;;;;27.83;100.00;97539.13;4816078;29;20514;-64
2023/07/16 00:18:46;;;;;;;5.85;4.13;;;;;;;27.87;100.00;97517.47;4807057;29;20821;-65
2023/07/16 00:21:15;;;;;;;5.70;4.45;;;;;;;27.88;100.00;97514.41;4828756;29;20076;-65
2023/07/16 00:23:44;;;;;;;7.13;4.40;;;;;;;27.90;100.00;97505.91;4826162;29;20058;-65
2023/07/16 00:26:14;;;;;;;13.15;4.60;;;;;;;27.92;100.00;97503.66;4840311;29;20114;-65
2023/07/16 00:28:44;;;;;;;10.60;5.63;;;;;;;27.82;100.00;97490.47;4802656;29;20061;-65
2023/07/16 00:31:14;;;;;;;15.23;5.47;;;;;;;27.80;100.00;97489.97;4823549;29;20083;-65
2023/07/16 00:33:44;;;;;;;6.20;5.00;;;;;;;27.82;100.00;97482.28;4837570;29;20050;-64
2023/07/16 00:36:14;;;;;;;8.55;4.90;;;;;;;27.82;100.00;97485.81;4820917;29;20060;-65
2023/07/16 00:38:45;;;;;;;9.85;6.30;;;;;;;27.75;100.00;97493.69;4835856;29;20137;-65
2023/07/16 00:41:16;;;;;;;7.13;5.00;;;;;;;27.79;100.00;97488.41;4833889;29;20095;-65
2023/07/16 00:43:45;;;;;;;7.63;5.07;;;;;;;27.84;100.00;97485.50;4821802;29;20061;-65
2023/07/16 00:46:14;;;;;;;8.45;5.55;;;;;;;27.78;100.00;97481.38;4812471;29;20134;-65
2023/07/16 00:48:44;;;;;;;10.35;5.47;;;;;;;27.77;100.00;97477.06;4839838;29;20042;-65
2023/07/16 00:51:16;;;;;;;10.93;5.78;;;;;;;27.79;100.00;97480.25;4816404;29;20563;-65
2023/07/16 00:53:47;;;;;;;7.47;5.93;;;;;;;27.82;100.00;97483.09;4817712;29;20138;-65
2023/07/16 00:56:18;;;;;;;6.20;5.60;;;;;;;27.85;100.00;97487.84;4840678;29;20845;-65
2023/07/16 00:58:47;;;;;;;9.77;5.95;;;;;;;27.82;100.00;97487.72;4817155;29;20490;-64
2023/07/16 01:01:17;;;;;;;8.40;5.28;;;;;;;27.84;100.00;97497.13;4810996;29;20164;-65
2023/07/16 01:03:47;;;;;;;11.45;6.65;;;;;;;27.86;100.00;97491.38;4822514;29;20388;-64
2023/07/16 01:06:47;;;;;;;10.50;6.25;;;;;;;27.91;100.00;97502.06;4821504;29;20145;-65
2023/07/16 01:09:19;;;;;;;10.50;6.32;;;;;;;27.94;100.00;97513.06;4821212;29;20061;-65
2023/07/16 01:11:51;;;;;;;11.38;6.70;;;;;;;27.96;100.00;97510.81;4824148;29;20478;-65
2023/07/16 01:14:22;;;;;;;12.80;7.90;;;;;;;27.97;100.00;97514.34;4820166;29;20064;-64
2023/07/16 01:16:58;;;;;;;11.85;8.32;;;;;;;28.00;100.00;97525.34;4810163;29;20054;-64
2023/07/16 01:19:27;;;;;;;10.82;7.88;;;;;;;28.05;100.00;97525.16;4820422;29;20129;-65
2023/07/16 01:22:02;;;;;;;12.25;8.43;;;;;;;28.10;100.00;97524.94;4828185;29;20070;-65
2023/07/16 01:24:51;;;;;;;8.18;7.28;;;;;;;28.15;100.00;97525.91;4808417;29;20065;-64
2023/07/16 01:27:57;;;;;;;7.72;6.18;;;;;;;28.09;100.00;97538.88;4840225;29;20073;-65
2023/07/16 01:30:29;;;;;;;7.90;6.35;;;;;;;28.02;100.00;97538.63;4811865;29;20111;-65
2023/07/16 01:33:01;;;;;;;9.23;5.97;;;;;;;28.03;100.00;97540.22;4819666;29;20057;-65
2023/07/16 01:35:31;;;;;;;9.32;6.13;;;;;;;28.12;100.00;97549.94;4807988;29;20157;-64
2023/07/16 01:38:01;;;;;;;8.68;5.72;;;;;;;28.15;100.00;97556.63;4817044;29;20074;-64
2023/07/16 01:40:30;;;;;;;9.10;5.95;;;;;;;28.20;100.00;97556.41;4820403;29;20062;-65
2023/07/16 01:43:01;;;;;;;7.60;6.13;;;;;;;27.93;100.00;97565.13;4836297;29;20081;-64
2023/07/16 01:45:30;;;;;;;8.23;5.85;;;;;;;28.01;100.00;97567.00;4838368;29;20050;-65
2023/07/16 01:48:30;;;;;;;9.25;6.28;;;;;;;27.99;100.00;97563.78;4834904;29;20058;-64
2023/07/16 01:51:00;;;;;;;10.07;6.25;;;;;;;28.08;100.00;97565.31;4794834;29;20054;-65
2023/07/16 01:53:30;;;;;;;8.30;6.47;;;;;;;27.98;100.00;97563.00;4801882;29;20062;-65
2023/07/16 01:56:02;;;;;;;11.32;6.70;;;;;;;27.93;100.00;97565.13;4831864;29;20434;-65
2023/07/16 01:58:31;;;;;;;10.23;6.10;;;;;;;27.97;100.00;97566.06;4812449;29;20050;-65
2023/07/16 02:01:01;;;;;;;9.48;6.90;;;;;;;28.06;100.00;97564.84;4825282;29;20087;-66
2023/07/16 02:03:30;;;;;;;9.70;6.32;;;;;;;28.08;100.00;97573.47;4836229;29;20192;-65
2023/07/16 02:06:00;;;;;;;8.88;6.78;;;;;;;28.06;100.00;97586.63;4789869;29;20119;-64
2023/07/16 02:08:29;;;;;;;8.02;6.95;;;;;;;28.04;100.00;97596.25;4825524;29;20042;-65
2023/07/16 02:10:59;;;;;;;8.98;7.00;;;;;;;28.11;100.00;97594.63;4841852;29;20054;-65
2023/07/16 02:13:28;;;;;;;7.22;6.00;;;;;;;28.13;100.00;97607.91;4833832;29;20075;-65
2023/07/16 02:15:58;;;;;;;9.20;6.38;;;;;;;28.11;100.00;97621.03;4833812;29;20061;-65
2023/07/16 02:18:39;;;;;;;8.35;7.43;;;;;;;28.01;100.00;97627.69;4816152;29;20053;-66
2023/07/16 02:21:08;;;;;;;10.45;7.97;;;;;;;28.03;100.00;97624.59;4821922;29;20123;-65
2023/07/16 02:23:38;;;;;;;13.57;7.85;;;;;;;28.00;100.00;97623.34;4824757;29;20061;-65
2023/07/16 02:26:08;;;;;;;10.15;7.97;;;;;;;28.08;100.00;97627.94;4805588;29;20065;-64
2023/07/16 02:28:40;;;;;;;11.70;9.00;;;;;;;28.08;100.00;97632.56;4826568;29;20050;-66
2023/07/16 02:31:10;;;;;;;13.68;9.23;;;;;;;28.18;100.00;97640.38;4842427;29;20050;-65
2023/07/16 02:33:41;;;;;;;12.68;8.40;;;;;;;28.26;100.00;97639.50;4814320;29;20122;-65
2023/07/16 02:36:11;;;;;;;12.25;9.60;;;;;;;28.15;100.00;97643.75;4815198;29;20482;-65
2023/07/16 02:38:42;;;;;;;15.98;9.90;;;;;;;28.07;100.00;97647.31;4817768;29;20207;-61
2023/07/16 02:41:12;;;;;;;12.68;10.05;;;;;;;28.02;100.00;97661.13;4823194;29;20057;-65
2023/07/16 02:43:45;;;;;;;14.23;10.40;;;;;;;28.17;100.00;97657.84;4838145;29;20056;-64
2023/07/16 02:46:15;;;;;;;13.48;9.73;;;;;;;28.05;100.00;97666.72;4810701;29;20495;-65
2023/07/16 02:48:48;;;;;;;13.68;9.98;;;;;;;28.05;100.00;97671.38;4840879;29;20158;-65
2023/07/16 02:51:18;;;;;;;13.18;10.02;;;;;;;28.03;100.00;97682.56;4824620;29;20056;-65
2023/07/16 02:53:47;;;;;;;13.75;9.85;;;;;;;28.15;100.00;97679.16;4786358;29;20065;-64
2023/07/16 02:56:17;;;;;;;12.80;9.05;;;;;;;28.22;100.00;97681.34;4819529;29;20053;-65
2023/07/16 02:58:46;;;;;;;10.95;8.93;;;;;;;28.13;100.00;97687.66;4817995;29;20065;-64
2023/07/16 03:01:16;;;;;;;13.63;8.18;;;;;;;28.19;100.00;97693.72;4835304;29;20135;-66
2023/07/16 03:03:45;;;;;;;9.77;7.85;;;;;;;28.21;100.00;97690.66;4817643;29;20152;-64
2023/07/16 03:06:15;;;;;;;11.00;8.02;;;;;;;28.29;100.00;97693.31;4835536;29;20053;-64
2023/07/16 03:08:51;;;;;;;9.55;7.13;;;;;;;28.33;100.00;97691.50;4834692;29;20758;-65
2023/07/16 03:11:20;;;;;;;10.10;7.10;;;;;;;28.31;100.00;97698.44;4824937;29;20058;-64
2023/07/16 03:13:49;;;;;;;11.77;7.82;;;;;;;28.31;100.00;97693.78;4821327;29;20050;-64
2023/07/16 03:16:19;;;;;;;11.00;7.43;;;;;;;28.36;100.00;97684.63;4834798;29;20612;-64
2023/07/16 03:18:48;;;;;;;10.45;7.90;;;;;;;28.35;100.00;97694.72;4822692;29;20053;-64
2023/07/16 03:21:18;;;;;;;12.80;7.78;;;;;;;28.30;100.00;97694.09;4836328;29;20542;-64
2023/07/16 03:23:48;;;;;;;10.57;7.85;;;;;;;28.23;100.00;97699.31;4821785;29;20069;-65
2023/07/16 03:26:18;;;;;;;10.15;7.88;;;;;;;28.25;100.00;97697.03;4822956;29;20058;-64
2023/07/16 03:28:48;;;;;;;12.15;7.90;;;;;;;28.24;100.00;97704.38;4806124;29;20130;-66
2023/07/16 03:31:18;;;;;;;12.18;7.18;;;;;;;28.30;100.00;97703.06;4831561;29;20065;-64
2023/07/16 03:33:49;;;;;;;10.07;7.80;;;;;;;28.29;100.00;97704.19;4787864;29;20057;-66
2023/07/16 03:36:19;;;;;;;9.88;8.20;;;;;;;28.24;100.00;97709.84;4831458;29;20066;-65
2023/07/16 03:38:50;;;;;;;11.40;7.45;;;;;;;28.24;100.00;97700.88;4834811;29;20058;-65
2023/07/16 03:41:19;;;;;;;10.48;8.60;;;;;;;28.24;100.00;97704.38;4816830;29;20058;-65
2023/07/16 03:43:49;;;;;;;10.57;8.18;;;;;;;28.26;100.00;97710.31;4811743;29;20050;-66
2023/07/16 03:46:21;;;;;;;13.77;9.85;;;;;;;28.19;100.00;97711.97;4831374;29;20455;-64
2023/07/16 03:48:53;;;;;;;11.05;9.25;;;;;;;28.10;100.00;97712.81;4804060;29;20495;-65
2023/07/16 03:51:22;;;;;;;12.60;9.25;;;;;;;28.15;100.00;97725.44;4793480;29;20344;-65
2023/07/16 03:53:54;;;;;;;12.45;7.97;;;;;;;28.21;100.00;97717.88;4803167;29;20078;-65
2023/07/16 03:56:23;;;;;;;13.50;9.55;;;;;;;28.18;100.00;97724.81;4800192;29;20154;-64
2023/07/16 03:58:53;;;;;;;14.32;9.43;;;;;;;28.10;100.00;97726.44;4821045;29;20058;-66
2023/07/16 04:01:22;;;;;;;12.70;9.65;;;;;;;28.19;100.00;97731.84;4825964;29;20442;-66
2023/07/16 04:03:51;;;;;;;16.92;9.60;;;;;;;28.22;100.00;97742.06;4812133;29;20115;-66
2023/07/16 04:06:21;;;;;;;14.25;10.13;;;;;;;28.24;100.00;97733.56;4805082;29;20147;-67
2023/07/16 04:08:52;;;;;;;13.55;9.10;;;;;;;28.24;100.00;97728.09;4832484;29;20062;-65
2023/07/16 04:11:22;;;;;;;17.15;10.70;;;;;;;28.22;100.00;97736.63;4840036;29;20055;-66
2023/07/16 04:13:51;;;;;;;15.32;10.32;;;;;;;28.23;100.00;97735.50;4819431;29;20155;-66
2023/07/16 04:16:20;;;;;;;14.93;10.38;;;;;;;28.23;100.00;97730.06;4806847;29;20086;-67
2023/07/16 04:18:50;;;;;;;14.70;10.35;;;;;;;28.31;100.00;97731.13;4806691;29;20814;-65
2023/07/16 04:21:19;;;;;;;12.38;9.90;;;;;;;28.39;100.00;97728.31;4814390;29;20149;-66
2023/07/16 04:23:50;;;;;;;16.20;11.07;;;;;;;28.43;100.00;97740.16;4801518;29;20137;-65
2023/07/16 04:26:19;;;;;;;15.23;11.27;;;;;;;28.46;100.00;97736.75;4814756;29;20054;-66
2023/07/16 04:28:49;;;;;;;14.80;10.93;;;;;;;28.52;100.00;97742.81;4803540;29;20050;-65
2023/07/16 04:31:18;;;;;;;16.15;12.18;;;;;;;28.53;100.00;97745.22;4800029;29;20066;-66
2023/07/16 04:33:48;;;;;;;16.73;11.57;;;;;;;28.58;100.00;97747.75;4802189;29;20083;-65
2023/07/16 04:36:17;;;;;;;19.40;12.43;;;;;;;28.54;100.00;97746.81;4803846;29;20050;-65
2023/07/16 04:38:46;;;;;;;17.90;12.43;;;;;;;28.62;100.00;97747.06;4816923;29;20061;-65
2023/07/16 04:41:17;;;;;;;18.02;12.00;;;;;;;28.70;100.00;97752.47;4832715;29;20072;-65
2023/07/16 04:43:47;;;;;;;21.63;14.70;;;;;;;28.74;100.00;97755.31;4841453;29;20049;-65
2023/07/16 04:46:17;;;;;;;23.02;19.48;;;;;;;28.58;100.00;97747.75;4823423;29;20073;-64
2023/07/16 04:48:46;;;;;;;22.88;18.70;;;;;;;28.71;100.00;97745.91;4840413;29;20062;-64
2023/07/16 04:51:16;;;;;;;25.75;19.50;;;;;;;28.68;100.00;97745.75;4826068;29;20042;-65
2023/07/16 04:53:46;;;;;;;25.98;19.85;;;;;;;28.55;100.00;97740.22;4823582;29;20134;-64
2023/07/16 04:56:16;;;;;;;28.92;18.27;;;;;;;28.58;100.00;97738.75;4823523;29;20052;-64
2023/07/16 04:58:46;;;;;;;23.48;17.95;;;;;;;28.66;100.00;97740.63;4836118;29;20046;-65
2023/07/16 05:01:15;;;;;;;24.00;18.10;;;;;;;28.64;100.00;97733.88;4824188;29;20145;-66
2023/07/16 05:03:51;;;;;;;23.05;18.17;;;;;;;28.72;100.00;97736.59;4819404;29;20812;-65
2023/07/16 05:06:21;;;;;;;24.08;18.65;;;;;;;28.69;100.00;97733.69;4828428;29;20111;-65
2023/07/16 05:08:51;;;;;;;24.27;18.23;;;;;;;28.67;100.00;97725.06;4829141;29;20494;-69
2023/07/16 05:11:21;;;;;;;31.45;20.27;;;;;;;28.63;100.00;97724.94;4821643;29;20054;-64
2023/07/16 05:13:50;;;;;;;25.08;19.67;;;;;;;28.68;100.00;97715.75;4823990;29;20045;-66
2023/07/16 05:16:20;;;;;;;26.38;20.73;;;;;;;28.77;100.00;97727.38;4826122;29;20062;-66
2023/07/16 05:18:49;;;;;;;27.42;20.63;;;;;;;28.86;100.00;97728.09;4824286;29;20138;-66
2023/07/16 05:21:19;;;;;;;33.85;23.90;;;;;;;28.76;100.00;97720.38;4822139;29;20853;-66
2023/07/16 05:23:49;;;;;;;27.30;22.95;;;;;;;28.83;100.00;97707.78;4838376;29;20549;-66
2023/07/16 05:26:18;;;;;;;37.33;23.92;;;;;;;28.86;100.00;97707.09;4827596;29;20058;-66
2023/07/16 05:28:47;;;;;;;30.23;22.23;;;;;;;28.89;100.00;97717.34;4828287;29;20049;-66
2023/07/16 05:31:16;;;;;;;32.97;23.25;;;;;;;28.91;100.00;97723.25;4819307;29;20060;-67
2023/07/16 05:33:46;;;;;;;33.85;24.15;;;;;;;28.89;100.00;97716.56;4825252;29;20049;-68
2023/07/16 05:36:15;;;;;;;31.92;23.58;;;;;;;28.98;100.00;97717.25;4831562;29;20667;-65
2023/07/16 05:38:45;;;;;;;32.15;24.20;;;;;;;28.90;100.00;97708.03;4807823;29;20058;-70
2023/07/16 05:41:14;;;;;;;38.58;24.60;;;;;;;28.91;100.00;97709.63;4830763;29;20122;-68
2023/07/16 05:43:44;;;;;;;34.17;25.02;;;;;;;28.88;100.00;97710.31;4826166;29;20062;-68
2023/07/16 05:46:13;;;;;;;39.13;28.65;;;;;;;28.87;100.00;97711.44;4843988;29;20064;-68
2023/07/16 05:48:43;;;;;;;41.03;26.90;;;;;;;28.95;100.00;97716.00;4822855;29;20064;-67
2023/07/16 05:51:13;;;;;;;35.10;26.25;;;;;;;29.04;100.00;97713.19;4828904;29;20139;-65
2023/07/16 05:53:42;;;;;;;35.95;26.58;;;;;;;28.98;100.00;97714.53;4817247;29;20157;-70
2023/07/16 05:56:12;;;;;;;35.17;25.95;;;;;;;28.92;100.00;97722.13;4829943;29;20042;-67
2023/07/16 05:58:42;;;;;;;36.05;26.55;;;;;;;28.96;100.00;97714.06;4810058;29;20062;-72
2023/07/16 06:01:11;;;;;;;41.08;27.88;;;;;;;28.96;100.00;97728.50;4829866;29;20082;-72
2023/07/16 06:03:41;;;;;;;35.25;26.05;;;;;;;28.95;100.00;97720.66;4824589;29;20054;-69
2023/07/16 06:06:10;;;;;;;34.92;24.98;;;;;;;28.85;100.00;97719.16;4833950;29;20076;-68
2023/07/16 06:08:40;;;;;;;31.65;23.90;;;;;;;28.97;100.00;97719.19;4813216;29;20065;-69
2023/07/16 06:11:09;;;;;;;35.08;24.80;;;;;;;29.07;100.00;97717.19;4811439;29;20114;-68
2023/07/16 06:13:57;;;;;;;34.88;24.20;;;;;;;29.01;100.00;97725.56;4817553;29;20047;-68
2023/07/16 06:16:26;;;;;;;36.88;24.88;;;;;;;28.91;100.00;97723.25;4818982;29;20065;-68
2023/07/16 06:18:56;;;;;;;33.60;23.80;;;;;;;28.96;100.00;97733.94;4829149;29;20057;-69
2023/07/16 06:21:26;;;;;;;34.10;23.52;;;;;;;28.93;100.00;97725.66;4811432;29;20096;-67
2023/07/16 06:23:56;;;;;;;33.80;23.73;;;;;;;28.91;100.00;97730.63;4811927;29;20150;-67
2023/07/16 06:26:26;;;;;;;32.30;23.98;;;;;;;28.82;100.00;97738.09;4809693;29;20648;-69
2023/07/16 06:28:56;;;;;;;36.30;25.15;;;;;;;28.85;100.00;97735.50;4818152;29;20057;-69
2023/07/16 06:31:28;;;;;;;34.43;24.20;;;;;;;28.89;100.00;97730.97;4801412;29;20225;-69
2023/07/16 06:33:58;;;;;;;35.30;24.45;;;;;;;28.89;100.00;97722.00;4816264;29;20062;-70
2023/07/16 06:36:28;;;;;;;37.05;25.92;;;;;;;28.77;100.00;97716.50;4799931;29;20054;-70
2023/07/16 06:38:57;;;;;;;36.28;25.92;;;;;;;28.81;100.00;97720.16;4831933;29;20065;-66
2023/07/16 06:41:27;;;;;;;40.08;27.35;;;;;;;28.89;100.00;97713.81;4803725;29;20509;-71
2023/07/16 06:43:57;;;;;;;38.92;26.15;;;;;;;28.72;100.00;97706.63;4804209;29;20669;-69
2023/07/16 06:46:26;;;;;;;40.97;25.42;;;;;;;28.73;100.00;97701.94;4804759;29;20058;-69
2023/07/16 06:48:56;;;;;;;40.33;26.52;;;;;;;28.78;100.00;97693.56;4803077;29;20658;-67
2023/07/16 06:51:25;;;;;;;36.25;24.60;;;;;;;28.68;100.00;97683.06;4816994;29;20977;-69
2023/07/16 06:53:55;;;;;;;36.47;24.80;;;;;;;28.72;100.00;97679.38;4820173;29;20763;-71
2023/07/16 06:56:26;;;;;;;35.30;23.73;;;;;;;28.68;100.00;97661.25;4820891;29;20654;-67
2023/07/16 06:58:56;;;;;;;35.47;24.02;;;;;;;28.72;100.00;97667.66;4815779;29;20502;-67
2023/07/16 07:01:27;;;;;;;34.75;22.90;;;;;;;28.65;100.00;97670.09;4803850;29;20118;-68
2023/07/16 07:03:57;;;;;;;31.23;22.15;;;;;;;28.77;100.00;97670.16;4818617;29;20050;-68
2023/07/16 07:06:26;;;;;;;30.45;21.90;;;;;;;28.72;100.00;97673.09;4802251;29;20319;-67
2023/07/16 07:08:56;;;;;;;33.53;21.75;;;;;;;28.76;100.00;97668.56;4789015;29;20216;-69
2023/07/16 07:11:26;;;;;;;32.13;22.52;;;;;;;28.77;100.00;97670.16;4816952;29;20062;-67
2023/07/16 07:13:57;;;;;;;31.80;21.88;;;;;;;28.88;100.00;97661.22;4815116;29;20746;-70
2023/07/16 07:16:27;;;;;;;31.90;21.02;;;;;;;29.03;100.00;97662.53;4818603;29;20155;-71
2023/07/16 07:18:57;;;;;;;29.10;21.70;;;;;;;29.02;100.00;97661.72;4818797;29;20054;-69
2023/07/16 07:21:27;;;;;;;30.95;21.70;;;;;;;29.12;100.00;97665.16;4818815;29;20054;-70
2023/07/16 07:23:56;;;;;;;28.88;21.45;;;;;;;29.10;100.00;97668.22;4818194;29;20054;-68
2023/07/16 07:26:26;;;;;;;29.27;21.25;;;;;;;29.11;100.00;97671.72;4816725;29;20133;-69
2023/07/16 07:28:56;;;;;;;26.65;19.77;;;;;;;29.12;100.00;97663.19;4816366;29;20060;-68
2023/07/16 07:31:26;;;;;;;27.23;19.77;;;;;;;29.17;100.00;97651.28;4818402;29;20042;-69
2023/07/16 07:33:57;;;;;;;24.95;18.30;;;;;;;29.07;100.00;97649.81;4827469;29;20054;-67
2023/07/16 07:36:27;;;;;;;26.98;19.30;;;;;;;29.03;100.00;97651.63;4815731;29;20661;-68
2023/07/16 07:38:57;;;;;;;24.63;18.27;;;;;;;29.07;100.00;97652.53;4806354;29;20054;-69
2023/07/16 07:41:27;;;;;;;27.00;17.92;;;;;;;29.18;100.00;97653.66;4833366;29;20050;-69
2023/07/16 07:43:56;;;;;;;22.65;18.02;;;;;;;29.17;100.00;97654.00;4834626;29;20074;-68
2023/07/16 07:46:25;;;;;;;23.17;18.65;;;;;;;29.09;100.00;97649.44;4816780;29;20074;-69
2023/07/16 07:48:55;;;;;;;22.20;17.48;;;;;;;29.09;100.00;97650.25;4834683;29;20118;-68
2023/07/16 07:51:26;;;;;;;27.08;18.55;;;;;;;29.09;100.00;97652.16;4783518;29;20062;-66
2023/07/16 07:53:56;;;;;;;24.65;18.85;;;;;;;29.11;100.00;97650.72;4806361;29;20042;-65
2023/07/16 07:56:26;;;;;;;29.13;19.42;;;;;;;29.11;100.00;97652.63;4805258;29;20050;-66
2023/07/16 07:58:55;;;;;;;28.23;19.92;;;;;;;29.10;100.00;97659.22;4818504;29;20149;-67
2023/07/16 08:01:27;;;;;;;29.05;19.60;;;;;;;29.15;100.00;97650.81;4798847;29;20545;-67
2023/07/16 08:03:56;;;;;;;29.23;20.10;;;;;;;29.23;100.00;97655.38;4787060;29;20064;-69
2023/07/16 08:06:26;;;;;;;28.95;20.75;;;;;;;29.23;100.00;97645.28;4813571;29;20187;-68
2023/07/16 08:08:56;;;;;;;27.65;19.67;;;;;;;29.27;100.00;97640.72;4815418;29;20597;-68
2023/07/16 08:11:28;;;;;;;24.40;17.77;;;;;;;29.26;100.00;97633.66;4818119;29;20051;-69
2023/07/16 08:13:58;;;;;;;28.93;18.53;;;;;;;29.23;100.00;97642.53;4805413;29;20122;-73
2023/07/16 08:16:27;;;;;;;25.92;18.83;;;;;;;29.28;100.00;97649.72;4819821;29;20074;-68
2023/07/16 08:19:00;;;;;;;24.60;17.83;;;;;;;29.30;100.00;97639.25;4816482;29;20144;-69
2023/07/16 08:21:33;;;;;;;23.70;18.27;;;;;;;29.33;100.00;97631.22;4823799;29;20382;-68
2023/07/16 08:24:03;;;;;;;28.23;18.90;;;;;;;29.20;100.00;97628.78;4822617;29;20054;-68
2023/07/16 08:26:33;;;;;;;22.88;18.17;;;;;;;29.32;100.00;97624.16;4819222;29;20128;-69
2023/07/16 08:29:04;;;;;;;25.20;19.27;;;;;;;29.32;100.00;97623.38;4820020;29;20161;-68
2023/07/16 08:31:37;;;;;;;24.58;18.48;;;;;;;29.42;100.00;97609.28;4825745;29;20054;-69
2023/07/16 08:34:06;;;;;;;27.75;19.38;;;;;;;29.43;100.00;97619.06;4824863;29;20487;-69
2023/07/16 08:36:40;;;;;;;26.73;18.63;;;;;;;29.48;100.00;97624.25;4824444;29;20047;-69
2023/07/16 08:39:12;;;;;;;29.00;19.80;;;;;;;29.46;100.00;97615.63;4821023;29;20057;-69
2023/07/16 08:41:42;;;;;;;33.38;21.77;;;;;;;29.42;100.00;97623.72;4814155;29;20130;-68
2023/07/16 08:44:12;;;;;;;32.80;21.52;;;;;;;29.58;100.00;97618.34;4822187;29;20046;-68
2023/07/16 08:46:42;;;;;;;30.25;21.65;;;;;;;29.60;100.00;97616.09;4837150;29;20177;-69
2023/07/16 08:49:13;;;;;;;27.27;19.83;;;;;;;29.71;100.00;97624.59;4821195;29;20045;-69
2023/07/16 08:51:44;;;;;;;25.67;20.20;;;;;;;29.63;100.00;97620.06;4832367;29;20497;-69
2023/07/16 08:54:19;;;;;;;28.75;20.30;;;;;;;29.77;100.00;97612.31;4820729;29;20081;-69
2023/07/16 08:56:49;;;;;;;23.88;19.15;;;;;;;29.73;100.00;97608.69;4799860;29;20050;-69
2023/07/16 08:59:18;;;;;;;30.38;19.38;;;;;;;29.68;100.00;97598.78;4813117;29;20427;-69
2023/07/16 09:01:51;;;;;;;28.58;19.92;;;;;;;29.64;100.00;97591.63;4815439;29;20050;-69
2023/07/16 09:04:22;;;;;;;25.73;19.17;;;;;;;29.63;100.00;97598.22;4817508;29;20069;-69
2023/07/16 09:06:51;;;;;;;28.70;19.55;;;;;;;29.68;100.00;97596.06;4817510;29;20049;-68
2023/07/16 09:09:24;;;;;;;28.08;17.88;;;;;;;29.79;100.00;97596.38;4818811;29;20077;-65
2023/07/16 09:11:57;;;;;;;25.08;19.10;;;;;;;29.79;100.00;97591.69;4791819;29;20078;-69
2023/07/16 09:14:29;;;;;;;30.98;21.20;;;;;;;29.69;100.00;97588.66;4804330;29;20046;-70
2023/07/16 09:16:59;;;;;;;31.92;21.30;;;;;;;29.73;100.00;97582.19;4804124;29;20438;-68
2023/07/16 09:19:32;;;;;;;32.47;20.73;;;;;;;29.77;100.00;97590.47;4792392;29;20065;-68
2023/07/16 09:22:02;;;;;;;28.10;19.33;;;;;;;29.94;100.00;97587.50;4823298;29;20078;-70
2023/07/16 09:24:31;;;;;;;35.45;23.23;;;;;;;30.06;100.00;97587.44;4822940;29;20054;-68
2023/07/16 09:27:01;;;;;;;32.90;22.75;;;;;;;29.94;100.00;97584.75;4827753;29;20653;-69
2023/07/16 09:29:31;;;;;;;35.28;22.00;;;;;;;30.10;100.00;97590.28;4814478;29;20061;-67
2023/07/16 09:32:07;;;;;;;29.42;21.30;;;;;;;30.28;100.00;97586.91;4819820;29;20157;-70
2023/07/16 09:34:37;;;;;;;33.42;21.88;;;;;;;30.34;100.00;97592.94;4801544;29;20054;-71
2023/07/16 09:37:07;;;;;;;36.13;22.10;;;;;;;30.45;100.00;97596.00;4807874;29;20052;-69
2023/07/16 09:39:38;;;;;;;30.80;20.40;;;;;;;30.53;100.00;97584.09;4798820;29;20061;-69
2023/07/16 09:42:08;;;;;;;30.85;21.88;;;;;;;30.45;100.00;97582.34;4782915;29;20066;-72
2023/07/16 09:44:38;;;;;;;28.05;20.45;;;;;;;30.56;100.00;97586.13;4813554;29;20142;-70
2023/07/16 09:47:07;;;;;;;27.10;20.35;;;;;;;30.42;100.00;97580.25;4804549;29;20043;-70
2023/07/16 09:49:40;;;;;;;27.27;20.95;;;;;;;30.38;100.00;97569.22;4795553;29;20051;-69
2023/07/16 09:52:10;;;;;;;27.88;20.63;;;;;;;30.44;100.00;97565.09;4804179;29;20486;-69
2023/07/16 09:54:41;;;;;;;27.85;20.10;;;;;;;30.43;100.00;97565.44;4801292;29;20055;-70
2023/07/16 09:57:15;;;;;;;25.85;18.95;;;;;;;30.54;100.00;97567.34;4794772;29;20050;-66
2023/07/16 09:59:46;;;;;;;25.05;18.70;;;;;;;30.57;100.00;97561.19;4780210;29;20119;-70
2023/07/16 10:02:16;;;;;;;28.20;18.92;;;;;;;30.68;100.00;97561.44;4789373;29;20068;-66
2023/07/16 10:04:45;;;;;;;26.35;18.58;;;;;;;30.71;100.00;97555.31;4800946;29;20154;-70
2023/07/16 10:07:23;;;;;;;25.30;18.02;;;;;;;30.86;100.00;97556.44;4794604;29;20062;-71
2023/07/16 10:09:57;;;;;;;28.58;20.48;;;;;;;30.91;100.00;97564.38;4832609;29;20073;-70
2023/07/16 10:12:28;;;;;;;26.27;20.45;;;;;;;30.71;100.00;97574.44;4804745;29;20061;-69
2023/07/16 10:14:58;;;;;;;24.63;18.38;;;;;;;30.88;100.00;97571.34;4804217;29;20092;-70
2023/07/16 10:17:29;;;;;;;31.67;20.45;;;;;;;31.02;100.00;97565.47;4800638;29;20161;-71
2023/07/16 10:20:12;;;;;;;25.88;20.30;;;;;;;31.01;99.89;97558.41;4798273;29;20150;-70
2023/07/16 10:22:46;;;;;;;26.88;20.35;;;;;;;31.17;99.02;97561.94;4797702;29;20047;-71
2023/07/16 10:25:22;;;;;;;27.25;21.27;;;;;;;31.07;99.54;97557.78;4795771;29;20082;-69
2023/07/16 10:27:52;;;;;;;29.08;20.50;;;;;;;31.26;99.62;97548.06;4828908;29;20510;-67
2023/07/16 10:30:22;;;;;;;27.77;20.52;;;;;;;31.34;98.24;97550.59;4800606;29;20054;-69
2023/07/16 10:32:54;;;;;;;29.58;20.02;;;;;;;31.27;98.55;97552.38;4813237;29;20050;-68
2023/07/16 10:35:24;;;;;;;26.95;20.33;;;;;;;31.33;98.00;97553.72;4778253;29;20661;-70
2023/07/16 10:37:55;;;;;;;25.17;19.42;;;;;;;31.41;97.61;97544.50;4826666;29;20058;-70
2023/07/16 10:40:24;;;;;;;24.33;19.75;;;;;;;31.41;97.44;97547.25;4829412;29;20062;-71
2023/07/16 10:42:54;;;;;;;23.83;19.98;;;;;;;31.29;96.19;97542.66;4809385;29;20141;-70
2023/07/16 10:45:23;;;;;;;26.67;20.33;;;;;;;31.34;97.86;97542.38;4828050;29;20091;-69
2023/07/16 10:47:54;;;;;;;30.13;20.67;;;;;;;31.37;97.63;97544.44;4805204;29;20058;-69
2023/07/16 10:50:27;;;;;;;26.83;17.88;;;;;;;31.37;96.49;97538.16;4835251;29;20058;-71
2023/07/16 10:52:57;;;;;;;30.13;20.00;;;;;;;31.37;96.13;97536.22;4820824;29;20046;-70
2023/07/16 10:55:29;;;;;;;26.33;18.98;;;;;;;31.41;97.74;97533.56;4816569;29;20054;-71
2023/07/16 10:58:06;;;;;;;25.58;21.20;;;;;;;31.19;99.46;97530.34;4810701;29;20054;-70
2023/07/16 11:00:40;;;;;;;29.10;20.35;;;;;;;31.27;99.66;97525.03;4810649;29;20058;-71
2023/07/16 11:03:10;;;;;;;27.67;20.40;;;;;;;31.24;99.06;97517.53;4817628;29;20065;-70
2023/07/16 11:05:40;;;;;;;27.30;21.42;;;;;;;31.25;99.04;97514.44;4815485;29;20097;-72
2023/07/16 11:08:27;;;;;;;28.75;21.65;;;;;;;31.18;99.43;97506.88;4830719;29;20202;-70
2023/07/16 11:10:58;;;;;;;28.20;21.95;;;;;;;31.15;100.00;97501.31;4815344;29;20791;-67
2023/07/16 11:13:29;;;;;;;32.47;21.83;;;;;;;31.15;100.00;97498.59;4817973;29;20061;-69
2023/07/16 11:16:09;;;;;;;29.92;23.52;;;;;;;31.01;99.73;97493.56;4807873;29;20665;-71
2023/07/16 11:18:39;;;;;;;31.05;22.13;;;;;;;31.04;98.19;97476.44;4808346;29;20513;-69
2023/07/16 11:21:12;;;;;;;;;;;;;;;31.04;100.00;97470.19;4812558;29;20053;-69
2023/07/16 11:23:41;;;;;;;33.25;23.98;;;;;;;31.00;100.00;97475.56;4815425;29;20023;-69
2023/07/16 11:26:11;;;;;;;29.52;22.40;;;;;;;31.06;98.52;97474.16;4800352;29;20078;-68
2023/07/16 11:28:42;;;;;;;32.17;24.85;;;;;;;30.99;99.01;97464.94;4812658;29;20082;-72
2023/07/16 11:31:15;;;;;;;31.75;25.50;;;;;;;31.08;99.90;97458.16;4788239;29;20061;-71